Weather at Ile D'Yeu Port Joinville Heliport

Public forecast

Using degrees Celsius for public forecast. Weather courtesy of forecast.io.

Closest aviation weather report (METAR) to Ile D'Yeu Port Joinville Heliport

Closest report is Saint-Nazaire-Montoir Airport, 35.9 nm (66.4 km) NNE. Retrieved 2022/06/30 05:00 UTC (6 minutes ago):

LFRZ 300500Z AUTO 28005KT 9999 -RA FEW030/// SCT058/// BKN068/// //////CB 13/11 Q1013 TEMPO 4500 SHRA

Closest aviation forecast (TAF) to Ile D'Yeu Port Joinville Heliport

Closest forecast is Saint-Nazaire-Montoir Airport, 35.9 nm (66.4 km) NNE. Retrieved 2022-06-30 00:21 UTC (5 hours ago):

TAF LFRZ 292300Z 3000/3024 24003KT 9999 SCT030 TEMPO 3000/3006 -SHRA SCT030TCU TEMPO 3006/3014 4500 SHRA BKN030CB BECMG 3010/3012 26012KT